sensor_id;sensor_type;location;lat;lon;timestamp;pressure;altitude;pressure_sealevel;temperature;humidity
57086;BME280;42964;42.910;23.792;2023-01-15T00:02:13;98221.78;;;5.49;82.95
57086;BME280;42964;42.910;23.792;2023-01-15T00:07:14;98226.75;;;5.43;82.89
57086;BME280;42964;42.910;23.792;2023-01-15T00:12:13;98221.75;;;5.48;83.00
57086;BME280;42964;42.910;23.792;2023-01-15T00:17:12;98196.59;;;5.38;82.89
57086;BME280;42964;42.910;23.792;2023-01-15T00:22:11;98221.63;;;5.43;83.33
57086;BME280;42964;42.910;23.792;2023-01-15T00:27:10;98216.47;;;5.43;83.60
57086;BME280;42964;42.910;23.792;2023-01-15T00:32:27;98228.41;;;5.41;82.88
57086;BME280;42964;42.910;23.792;2023-01-15T00:37:27;98212.84;;;5.35;83.07
57086;BME280;42964;42.910;23.792;2023-01-15T00:42:26;98204.03;;;5.27;83.77
57086;BME280;42964;42.910;23.792;2023-01-15T00:47:25;98197.38;;;5.35;83.00
57086;BME280;42964;42.910;23.792;2023-01-15T00:52:24;98192.56;;;5.16;83.60
57086;BME280;42964;42.910;23.792;2023-01-15T00:57:23;98209.34;;;5.33;83.71
57086;BME280;42964;42.910;23.792;2023-01-15T01:02:22;98206.94;;;5.39;83.35
57086;BME280;42964;42.910;23.792;2023-01-15T01:07:21;98208.78;;;5.45;83.04
57086;BME280;42964;42.910;23.792;2023-01-15T01:12:20;98194.28;;;5.48;82.99
57086;BME280;42964;42.910;23.792;2023-01-15T01:17:21;98203.47;;;5.39;83.35
57086;BME280;42964;42.910;23.792;2023-01-15T01:22:20;98209.47;;;5.38;82.90
57086;BME280;42964;42.910;23.792;2023-01-15T01:27:19;98214.66;;;5.39;83.31
57086;BME280;42964;42.910;23.792;2023-01-15T01:32:18;98199.13;;;5.36;83.42
57086;BME280;42964;42.910;23.792;2023-01-15T01:37:16;98192.00;;;5.26;84.41
57086;BME280;42964;42.910;23.792;2023-01-15T01:42:16;98182.38;;;5.20;84.42
57086;BME280;42964;42.910;23.792;2023-01-15T01:47:34;98126.28;;;5.05;84.75
57086;BME280;42964;42.910;23.792;2023-01-15T01:52:40;98182.09;;;5.41;84.02
57086;BME280;42964;42.910;23.792;2023-01-15T01:57:40;98185.25;;;5.31;84.76
57086;BME280;42964;42.910;23.792;2023-01-15T02:02:42;98185.09;;;5.25;85.00
57086;BME280;42964;42.910;23.792;2023-01-15T02:07:42;98189.03;;;4.82;86.77
57086;BME280;42964;42.910;23.792;2023-01-15T02:12:47;98194.09;;;4.80;86.47
57086;BME280;42964;42.910;23.792;2023-01-15T02:17:59;98112.09;;;4.58;87.21
57086;BME280;42964;42.910;23.792;2023-01-15T02:28:33;98083.84;;;4.59;86.52
57086;BME280;42964;42.910;23.792;2023-01-15T02:33:38;98179.47;;;5.06;86.82
57086;BME280;42964;42.910;23.792;2023-01-15T02:38:43;98168.53;;;5.13;86.93
57086;BME280;42964;42.910;23.792;2023-01-15T02:43:54;98159.34;;;5.25;86.53
57086;BME280;42964;42.910;23.792;2023-01-15T02:48:57;98164.69;;;5.31;86.45
57086;BME280;42964;42.910;23.792;2023-01-15T02:53:59;98157.81;;;5.31;85.99
57086;BME280;42964;42.910;23.792;2023-01-15T02:59:05;98157.94;;;5.36;85.84
57086;BME280;42964;42.910;23.792;2023-01-15T03:04:23;98160.31;;;5.28;86.22
57086;BME280;42964;42.910;23.792;2023-01-15T03:09:27;98155.38;;;5.36;85.82
57086;BME280;42964;42.910;23.792;2023-01-15T03:14:35;98157.16;;;5.39;85.88
57086;BME280;42964;42.910;23.792;2023-01-15T03:20:03;98096.25;;;5.04;85.82
57086;BME280;42964;42.910;23.792;2023-01-15T03:25:13;98152.72;;;5.33;85.85
57086;BME280;42964;42.910;23.792;2023-01-15T03:30:17;98157.03;;;5.34;85.45
57086;BME280;42964;42.910;23.792;2023-01-15T03:45:49;98158.91;;;5.40;85.10
57086;BME280;42964;42.910;23.792;2023-01-15T03:51:19;98158.78;;;5.35;85.63
57086;BME280;42964;42.910;23.792;2023-01-15T03:56:38;98157.94;;;5.36;85.98
57086;BME280;42964;42.910;23.792;2023-01-15T04:01:41;98151.03;;;5.33;85.79
57086;BME280;42964;42.910;23.792;2023-01-15T04:06:42;98151.69;;;5.26;85.88
57086;BME280;42964;42.910;23.792;2023-01-15T04:11:41;98160.69;;;5.10;86.26
57086;BME280;42964;42.910;23.792;2023-01-15T04:16:40;98157.88;;;5.01;86.44
57086;BME280;42964;42.910;23.792;2023-01-15T04:21:39;98150.19;;;4.72;87.29
57086;BME280;42964;42.910;23.792;2023-01-15T04:26:38;98150.53;;;4.85;87.36
57086;BME280;42964;42.910;23.792;2023-01-15T04:31:37;98159.66;;;5.04;87.10
57086;BME280;42964;42.910;23.792;2023-01-15T04:36:36;98152.00;;;5.05;86.65
57086;BME280;42964;42.910;23.792;2023-01-15T04:41:35;98158.09;;;5.09;86.47
57086;BME280;42964;42.910;23.792;2023-01-15T04:46:53;98160.88;;;5.17;86.36
57086;BME280;42964;42.910;23.792;2023-01-15T04:51:53;98139.38;;;5.15;86.55
57086;BME280;42964;42.910;23.792;2023-01-15T04:56:53;98122.88;;;5.06;85.88
57086;BME280;42964;42.910;23.792;2023-01-15T05:01:53;98076.47;;;4.71;85.93
57086;BME280;42964;42.910;23.792;2023-01-15T05:06:52;98145.25;;;5.10;86.40
57086;BME280;42964;42.910;23.792;2023-01-15T05:11:51;98143.34;;;5.03;86.07
57086;BME280;42964;42.910;23.792;2023-01-15T05:16:49;98131.75;;;4.87;86.13
57086;BME280;42964;42.910;23.792;2023-01-15T05:21:48;98144.94;;;4.98;86.35
57086;BME280;42964;42.910;23.792;2023-01-15T05:26:49;98132.38;;;4.79;86.63
57086;BME280;42964;42.910;23.792;2023-01-15T05:31:48;98148.53;;;4.75;86.92
57086;BME280;42964;42.910;23.792;2023-01-15T05:36:47;98119.91;;;4.62;87.17
57086;BME280;42964;42.910;23.792;2023-01-15T05:41:46;98135.94;;;4.84;86.61
57086;BME280;42964;42.910;23.792;2023-01-15T05:46:49;98155.72;;;4.86;86.81
57086;BME280;42964;42.910;23.792;2023-01-15T05:51:48;98141.41;;;4.95;86.94
57086;BME280;42964;42.910;23.792;2023-01-15T05:56:48;98145.78;;;4.97;86.46
57086;BME280;42964;42.910;23.792;2023-01-15T06:01:47;98150.94;;;4.97;86.76
57086;BME280;42964;42.910;23.792;2023-01-15T06:06:47;98072.63;;;4.56;86.34
57086;BME280;42964;42.910;23.792;2023-01-15T06:11:46;98150.22;;;5.03;86.45
57086;BME280;42964;42.910;23.792;2023-01-15T06:16:45;98144.31;;;5.07;86.07
57086;BME280;42964;42.910;23.792;2023-01-15T06:21:44;98146.91;;;5.08;85.60
57086;BME280;42964;42.910;23.792;2023-01-15T06:26:43;98148.69;;;5.09;85.92
57086;BME280;42964;42.910;23.792;2023-01-15T06:31:42;98151.19;;;5.08;86.07
57086;BME280;42964;42.910;23.792;2023-01-15T06:36:41;98160.28;;;4.95;86.76
57086;BME280;42964;42.910;23.792;2023-01-15T06:41:40;98165.34;;;4.93;87.04
57086;BME280;42964;42.910;23.792;2023-01-15T06:47:01;98073.22;;;4.47;87.05
57086;BME280;42964;42.910;23.792;2023-01-15T06:52:18;98163.69;;;4.65;87.88
57086;BME280;42964;42.910;23.792;2023-01-15T06:57:18;98105.06;;;4.52;87.88
57086;BME280;42964;42.910;23.792;2023-01-15T07:02:18;98136.59;;;4.77;87.56
57086;BME280;42964;42.910;23.792;2023-01-15T07:07:19;98166.66;;;4.79;87.53
57086;BME280;42964;42.910;23.792;2023-01-15T07:12:18;98132.13;;;4.69;88.38
57086;BME280;42964;42.910;23.792;2023-01-15T07:17:17;98153.53;;;4.99;88.34
57086;BME280;42964;42.910;23.792;2023-01-15T07:22:16;98152.78;;;5.34;88.26
57086;BME280;42964;42.910;23.792;2023-01-15T07:27:15;98146.28;;;5.50;87.78
57086;BME280;42964;42.910;23.792;2023-01-15T07:32:14;98141.25;;;5.55;85.55
57086;BME280;42964;42.910;23.792;2023-01-15T07:37:13;98147.59;;;5.33;85.93
57086;BME280;42964;42.910;23.792;2023-01-15T07:42:12;98095.22;;;4.99;85.31
57086;BME280;42964;42.910;23.792;2023-01-15T07:47:30;98142.16;;;5.55;86.34
57086;BME280;42964;42.910;23.792;2023-01-15T07:52:47;98147.63;;;5.69;85.66
57086;BME280;42964;42.910;23.792;2023-01-15T07:57:46;98147.63;;;5.69;84.86
57086;BME280;42964;42.910;23.792;2023-01-15T08:02:45;98139.75;;;5.98;85.03
57086;BME280;42964;42.910;23.792;2023-01-15T08:07:47;98123.69;;;6.10;83.53
57086;BME280;42964;42.910;23.792;2023-01-15T08:12:50;98151.56;;;6.28;81.01
57086;BME280;42964;42.910;23.792;2023-01-15T08:18:08;98093.19;;;5.90;81.32
57086;BME280;42964;42.910;23.792;2023-01-15T08:23:07;98145.94;;;6.46;80.66
57086;BME280;42964;42.910;23.792;2023-01-15T08:28:08;98154.22;;;6.70;80.65
57086;BME280;42964;42.910;23.792;2023-01-15T08:33:07;98100.84;;;6.66;79.24
57086;BME280;42964;42.910;23.792;2023-01-15T08:38:06;98142.16;;;6.69;77.84
57086;BME280;42964;42.910;23.792;2023-01-15T08:43:05;98103.75;;;6.40;76.97
57086;BME280;42964;42.910;23.792;2023-01-15T08:48:04;98132.59;;;6.65;77.60
57086;BME280;42964;42.910;23.792;2023-01-15T08:53:03;98135.97;;;6.61;77.41
57086;BME280;42964;42.910;23.792;2023-01-15T08:58:02;98141.69;;;6.48;77.03
57086;BME280;42964;42.910;23.792;2023-01-15T09:03:01;98111.50;;;6.03;78.56
57086;BME280;42964;42.910;23.792;2023-01-15T09:08:00;98123.59;;;6.05;79.11
57086;BME280;42964;42.910;23.792;2023-01-15T09:13:00;98105.31;;;5.94;80.09
57086;BME280;42964;42.910;23.792;2023-01-15T09:17:59;98123.81;;;6.16;80.31
57086;BME280;42964;42.910;23.792;2023-01-15T09:22:58;98105.56;;;6.45;79.81
57086;BME280;42964;42.910;23.792;2023-01-15T09:27:57;98106.81;;;6.65;79.23
57086;BME280;42964;42.910;23.792;2023-01-15T09:32:56;98099.53;;;6.87;78.39
57086;BME280;42964;42.910;23.792;2023-01-15T09:37:55;98082.28;;;6.86;77.79
57086;BME280;42964;42.910;23.792;2023-01-15T09:42:57;97993.53;;;6.30;77.59
57086;BME280;42964;42.910;23.792;2023-01-15T09:58:58;98048.63;;;6.79;77.64
57086;BME280;42964;42.910;23.792;2023-01-15T10:04:31;98029.63;;;6.74;77.30
57086;BME280;42964;42.910;23.792;2023-01-15T10:09:37;98025.41;;;6.78;76.99
57086;BME280;42964;42.910;23.792;2023-01-15T10:20:13;97979.16;;;6.87;72.75
57086;BME280;42964;42.910;23.792;2023-01-15T10:25:15;97981.28;;;7.13;69.34
57086;BME280;42964;42.910;23.792;2023-01-15T10:30:32;97980.75;;;7.34;68.55
57086;BME280;42964;42.910;23.792;2023-01-15T10:36:23;97970.78;;;7.55;67.39
57086;BME280;42964;42.910;23.792;2023-01-15T10:46:17;97941.13;;;7.91;64.73
57086;BME280;42964;42.910;23.792;2023-01-15T10:51:20;97943.16;;;8.17;63.53
57086;BME280;42964;42.910;23.792;2023-01-15T10:56:55;97912.34;;;8.38;62.80
57086;BME280;42964;42.910;23.792;2023-01-15T11:02:00;97917.72;;;8.60;61.86
57086;BME280;42964;42.910;23.792;2023-01-15T11:07:01;97925.66;;;8.77;61.65
57086;BME280;42964;42.910;23.792;2023-01-15T11:12:27;97921.44;;;8.89;59.51
57086;BME280;42964;42.910;23.792;2023-01-15T11:17:45;97899.03;;;8.88;59.21
57086;BME280;42964;42.910;23.792;2023-01-15T11:23:12;97899.06;;;8.94;58.08
57086;BME280;42964;42.910;23.792;2023-01-15T11:28:12;97893.03;;;8.94;57.98
57086;BME280;42964;42.910;23.792;2023-01-15T11:33:24;97890.50;;;9.00;58.11
57086;BME280;42964;42.910;23.792;2023-01-15T11:38:29;97875.75;;;8.91;57.50
57086;BME280;42964;42.910;23.792;2023-01-15T11:43:29;97877.63;;;9.12;58.05
57086;BME280;42964;42.910;23.792;2023-01-15T11:48:47;97875.16;;;9.28;57.87
57086;BME280;42964;42.910;23.792;2023-01-15T11:54:08;97858.81;;;9.38;56.59
57086;BME280;42964;42.910;23.792;2023-01-15T11:59:12;97856.94;;;9.20;55.52
57086;BME280;42964;42.910;23.792;2023-01-15T12:09:45;97850.03;;;9.11;55.29
57086;BME280;42964;42.910;23.792;2023-01-15T12:31:05;97785.69;;;8.41;55.37
57086;BME280;42964;42.910;23.792;2023-01-15T12:36:15;97814.31;;;8.66;55.86
57086;BME280;42964;42.910;23.792;2023-01-15T12:41:21;97818.66;;;8.71;55.57
57086;BME280;42964;42.910;23.792;2023-01-15T12:46:24;97818.69;;;8.76;55.47
57086;BME280;42964;42.910;23.792;2023-01-15T12:51:39;97807.56;;;8.86;54.71
57086;BME280;42964;42.910;23.792;2023-01-15T13:02:49;97801.47;;;8.77;54.90
57086;BME280;42964;42.910;23.792;2023-01-15T13:08:04;97798.00;;;8.76;55.49
57086;BME280;42964;42.910;23.792;2023-01-15T13:13:15;97802.28;;;8.71;54.68
57086;BME280;42964;42.910;23.792;2023-01-15T13:24:12;97790.22;;;8.73;54.99
57086;BME280;42964;42.910;23.792;2023-01-15T13:39:44;97743.44;;;8.39;55.30
57086;BME280;42964;42.910;23.792;2023-01-15T13:44:48;97767.69;;;8.54;55.55
57086;BME280;42964;42.910;23.792;2023-01-15T13:49:56;97767.69;;;8.54;55.42
57086;BME280;42964;42.910;23.792;2023-01-15T13:55:00;97764.22;;;8.51;56.13
57086;BME280;42964;42.910;23.792;2023-01-15T14:05:31;97718.22;;;8.12;56.35
57086;BME280;42964;42.910;23.792;2023-01-15T14:21:33;97764.56;;;7.94;58.34
57086;BME280;42964;42.910;23.792;2023-01-15T14:37:03;97762.41;;;7.51;61.03
57086;BME280;42964;42.910;23.792;2023-01-15T14:42:13;97758.00;;;7.41;60.91
57086;BME280;42964;42.910;23.792;2023-01-15T14:47:43;97761.22;;;7.24;62.01
57086;BME280;42964;42.910;23.792;2023-01-15T14:52:44;97764.59;;;7.17;62.94
57086;BME280;42964;42.910;23.792;2023-01-15T14:57:57;97760.19;;;7.12;62.99
57086;BME280;42964;42.910;23.792;2023-01-15T15:02:58;97757.44;;;6.98;63.17
57086;BME280;42964;42.910;23.792;2023-01-15T15:07:59;97749.47;;;6.81;64.07
57086;BME280;42964;42.910;23.792;2023-01-15T15:18:36;97766.22;;;6.50;65.23
57086;BME280;42964;42.910;23.792;2023-01-15T15:23:55;97743.66;;;6.36;64.90
57086;BME280;42964;42.910;23.792;2023-01-15T15:29:09;97765.22;;;6.42;64.84
57086;BME280;42964;42.910;23.792;2023-01-15T15:34:18;97776.19;;;6.28;66.01
57086;BME280;42964;42.910;23.792;2023-01-15T15:44:48;97756.97;;;6.08;67.59
57086;BME280;42964;42.910;23.792;2023-01-15T15:50:18;97760.13;;;5.93;68.31
57086;BME280;42964;42.910;23.792;2023-01-15T15:55:19;97759.13;;;5.85;69.02
57086;BME280;42964;42.910;23.792;2023-01-15T16:00:39;97760.69;;;5.75;69.33
57086;BME280;42964;42.910;23.792;2023-01-15T16:05:41;97672.91;;;5.16;69.56
57086;BME280;42964;42.910;23.792;2023-01-15T16:10:41;97758.66;;;5.60;70.03
57086;BME280;42964;42.910;23.792;2023-01-15T16:15:41;97667.53;;;5.02;69.97
57086;BME280;42964;42.910;23.792;2023-01-15T16:20:40;97760.28;;;5.53;70.73
57086;BME280;42964;42.910;23.792;2023-01-15T16:25:40;97749.88;;;5.47;70.73
57086;BME280;42964;42.910;23.792;2023-01-15T16:30:40;97758.53;;;5.52;70.75
57086;BME280;42964;42.910;23.792;2023-01-15T16:35:39;97753.13;;;5.37;71.30
57086;BME280;42964;42.910;23.792;2023-01-15T16:40:38;97758.94;;;5.28;72.37
57086;BME280;42964;42.910;23.792;2023-01-15T16:50:46;97750.06;;;5.14;73.04
57086;BME280;42964;42.910;23.792;2023-01-15T16:55:45;97753.41;;;5.10;73.01
57086;BME280;42964;42.910;23.792;2023-01-15T17:00:50;97750.03;;;5.12;73.44
57086;BME280;42964;42.910;23.792;2023-01-15T17:05:54;97757.69;;;5.09;73.51
57086;BME280;42964;42.910;23.792;2023-01-15T17:10:57;97748.22;;;5.08;73.25
57086;BME280;42964;42.910;23.792;2023-01-15T17:16:16;97741.41;;;5.09;73.55
57086;BME280;42964;42.910;23.792;2023-01-15T17:21:17;97709.13;;;4.84;73.59
57086;BME280;42964;42.910;23.792;2023-01-15T17:26:21;97732.41;;;4.90;73.59
57086;BME280;42964;42.910;23.792;2023-01-15T17:31:29;97731.50;;;4.88;74.24
57086;BME280;42964;42.910;23.792;2023-01-15T17:36:30;97727.03;;;4.79;74.80
57086;BME280;42964;42.910;23.792;2023-01-15T17:41:30;97721.91;;;4.79;75.03
57086;BME280;42964;42.910;23.792;2023-01-15T17:46:29;97726.19;;;4.79;75.00
57086;BME280;42964;42.910;23.792;2023-01-15T17:51:28;97725.41;;;4.84;74.66
57086;BME280;42964;42.910;23.792;2023-01-15T17:56:28;97726.13;;;4.77;74.50
57086;BME280;42964;42.910;23.792;2023-01-15T18:01:46;97723.63;;;4.80;74.44
57086;BME280;42964;42.910;23.792;2023-01-15T18:07:04;97718.50;;;4.82;74.36
57086;BME280;42964;42.910;23.792;2023-01-15T18:12:03;97710.75;;;4.79;74.36
57086;BME280;42964;42.910;23.792;2023-01-15T18:17:02;97660.28;;;4.43;74.61
57086;BME280;42964;42.910;23.792;2023-01-15T18:22:01;97705.31;;;4.66;75.22
57086;BME280;42964;42.910;23.792;2023-01-15T18:27:00;97699.38;;;4.67;75.21
57086;BME280;42964;42.910;23.792;2023-01-15T18:31:59;97695.00;;;4.63;75.67
57086;BME280;42964;42.910;23.792;2023-01-15T18:36:58;97698.31;;;4.59;75.90
57086;BME280;42964;42.910;23.792;2023-01-15T18:41:57;97701.78;;;4.60;76.00
57086;BME280;42964;42.910;23.792;2023-01-15T18:46:58;97686.31;;;4.58;75.64
57086;BME280;42964;42.910;23.792;2023-01-15T18:51:57;97697.56;;;4.63;75.78
57086;BME280;42964;42.910;23.792;2023-01-15T18:57:15;97695.84;;;4.62;75.61
57086;BME280;42964;42.910;23.792;2023-01-15T19:02:14;97676.91;;;4.59;75.39
57086;BME280;42964;42.910;23.792;2023-01-15T19:07:14;97667.63;;;4.65;74.88
57086;BME280;42964;42.910;23.792;2023-01-15T19:12:13;97672.75;;;4.65;74.66
57086;BME280;42964;42.910;23.792;2023-01-15T19:17:20;97659.81;;;4.61;74.68
57086;BME280;42964;42.910;23.792;2023-01-15T19:22:37;97653.00;;;4.63;74.50
57086;BME280;42964;42.910;23.792;2023-01-15T19:27:56;97646.06;;;4.59;74.74
57086;BME280;42964;42.910;23.792;2023-01-15T19:32:56;97650.28;;;4.55;74.62
57086;BME280;42964;42.910;23.792;2023-01-15T19:37:55;97637.53;;;4.60;74.71
57086;BME280;42964;42.910;23.792;2023-01-15T19:42:55;97637.34;;;4.52;74.87
57086;BME280;42964;42.910;23.792;2023-01-15T19:48:13;97641.66;;;4.53;74.57
57086;BME280;42964;42.910;23.792;2023-01-15T19:53:32;97619.31;;;4.49;73.79
57086;BME280;42964;42.910;23.792;2023-01-15T19:58:33;97629.91;;;4.64;73.54
57086;BME280;42964;42.910;23.792;2023-01-15T20:03:32;97627.34;;;4.64;73.40
57086;BME280;42964;42.910;23.792;2023-01-15T20:08:32;97634.22;;;4.65;73.16
57086;BME280;42964;42.910;23.792;2023-01-15T20:13:31;97537.91;;;4.04;72.83
57086;BME280;42964;42.910;23.792;2023-01-15T20:18:50;97645.56;;;4.77;72.17
57086;BME280;42964;42.910;23.792;2023-01-15T20:23:49;97634.34;;;4.73;71.68
57086;BME280;42964;42.910;23.792;2023-01-15T20:28:48;97639.78;;;4.87;71.01
57086;BME280;42964;42.910;23.792;2023-01-15T20:33:47;97632.88;;;4.84;70.53
57086;BME280;42964;42.910;23.792;2023-01-15T20:38:46;97638.31;;;4.98;69.77
57086;BME280;42964;42.910;23.792;2023-01-15T20:43:45;97624.69;;;5.04;69.54
57086;BME280;42964;42.910;23.792;2023-01-15T20:49:03;97622.16;;;5.05;69.06
57086;BME280;42964;42.910;23.792;2023-01-15T20:54:21;97618.63;;;5.00;68.74
57086;BME280;42964;42.910;23.792;2023-01-15T20:59:20;97615.31;;;5.06;69.21
57086;BME280;42964;42.910;23.792;2023-01-15T21:04:19;97620.44;;;5.06;68.83
57086;BME280;42964;42.910;23.792;2023-01-15T21:09:18;97624.78;;;5.08;69.25
57086;BME280;42964;42.910;23.792;2023-01-15T21:14:17;97621.44;;;5.12;68.51
57086;BME280;42964;42.910;23.792;2023-01-15T21:19:16;97608.22;;;4.94;68.89
57086;BME280;42964;42.910;23.792;2023-01-15T21:24:15;97621.22;;;5.00;69.21
57086;BME280;42964;42.910;23.792;2023-01-15T21:29:15;97620.16;;;4.92;69.34
57086;BME280;42964;42.910;23.792;2023-01-15T21:34:14;97616.03;;;4.99;68.73
57086;BME280;42964;42.910;23.792;2023-01-15T21:39:14;97613.41;;;4.96;69.07
57086;BME280;42964;42.910;23.792;2023-01-15T21:44:17;97609.78;;;4.86;69.04
57086;BME280;42964;42.910;23.792;2023-01-15T21:49:29;97598.53;;;4.82;68.69
57086;BME280;42964;42.910;23.792;2023-01-15T21:54:32;97510.31;;;4.38;68.55
57086;BME280;42964;42.910;23.792;2023-01-15T21:59:31;97590.19;;;4.92;67.93
57086;BME280;42964;42.910;23.792;2023-01-15T22:04:34;97571.22;;;4.87;67.64
57086;BME280;42964;42.910;23.792;2023-01-15T22:09:33;97589.41;;;4.95;67.79
57086;BME280;42964;42.910;23.792;2023-01-15T22:14:33;97581.75;;;4.98;67.92
57086;BME280;42964;42.910;23.792;2023-01-15T22:19:32;97562.88;;;4.99;67.66
57086;BME280;42964;42.910;23.792;2023-01-15T22:24:32;97570.47;;;4.93;67.93
57086;BME280;42964;42.910;23.792;2023-01-15T22:29:41;97563.56;;;4.90;68.23
57086;BME280;42964;42.910;23.792;2023-01-15T22:34:40;97561.75;;;4.85;68.42
57086;BME280;42964;42.910;23.792;2023-01-15T22:39:39;97572.97;;;4.88;68.36
57086;BME280;42964;42.910;23.792;2023-01-15T22:44:38;97563.50;;;4.86;68.42
57086;BME280;42964;42.910;23.792;2023-01-15T22:49:37;97556.59;;;4.85;68.67
57086;BME280;42964;42.910;23.792;2023-01-15T22:54:36;97559.09;;;4.80;69.01
57086;BME280;42964;42.910;23.792;2023-01-15T22:59:35;97570.94;;;4.72;69.43
57086;BME280;42964;42.910;23.792;2023-01-15T23:04:34;97541.72;;;4.67;69.34
57086;BME280;42964;42.910;23.792;2023-01-15T23:09:34;97554.84;;;4.81;69.42
57086;BME280;42964;42.910;23.792;2023-01-15T23:14:33;97550.47;;;4.78;69.27
57086;BME280;42964;42.910;23.792;2023-01-15T23:19:32;97549.47;;;4.70;69.83
57086;BME280;42964;42.910;23.792;2023-01-15T23:24:31;97541.63;;;4.64;69.88
57086;BME280;42964;42.910;23.792;2023-01-15T23:29:30;97541.03;;;4.77;69.37
57086;BME280;42964;42.910;23.792;2023-01-15T23:34:32;97527.28;;;4.74;69.73
57086;BME280;42964;42.910;23.792;2023-01-15T23:39:31;97536.50;;;4.64;69.88
57086;BME280;42964;42.910;23.792;2023-01-15T23:44:30;97531.31;;;4.61;70.40
57086;BME280;42964;42.910;23.792;2023-01-15T23:49:47;97521.03;;;4.61;70.02
57086;BME280;42964;42.910;23.792;2023-01-15T23:54:46;97521.84;;;4.58;70.35
57086;BME280;42964;42.910;23.792;2023-01-15T23:59:45;97510.72;;;4.59;70.12
